createdAt,value
2019-03-21T00:01:57.600Z,9.63
2019-03-21T00:04:29.573Z,15.57
2019-03-21T00:07:01.642Z,12.33
2019-03-21T00:09:38.281Z,24.70
2019-03-21T00:12:13.514Z,17.13
2019-03-21T00:17:44.390Z,14.80
2019-03-21T00:22:50.302Z,12.43
2019-03-21T00:25:26.398Z,13.40
2019-03-21T00:30:32.704Z,16.07
2019-03-21T00:33:04.702Z,22.20
2019-03-21T00:35:38.519Z,12.50
2019-03-21T00:40:49.056Z,20.25
2019-03-21T00:43:21.306Z,13.53
2019-03-21T00:45:54.815Z,8.93
2019-03-21T00:48:26.977Z,10.73
2019-03-21T00:50:58.974Z,9.63
2019-03-21T00:53:31.032Z,9.63
2019-03-21T00:56:02.895Z,7.90
2019-03-21T00:58:34.887Z,13.00
2019-03-21T01:01:11.053Z,13.00
2019-03-21T01:03:43.313Z,9.47
2019-03-21T01:06:15.393Z,7.77
2019-03-21T01:11:18.769Z,15.70
2019-03-21T01:13:51.786Z,13.37
2019-03-21T01:16:24.783Z,11.47
2019-03-21T01:18:56.745Z,9.97
2019-03-21T01:21:28.847Z,9.83
2019-03-21T01:24:00.775Z,11.80
2019-03-21T01:26:32.783Z,12.23
2019-03-21T01:29:04.760Z,11.00
2019-03-21T01:31:36.633Z,13.80
2019-03-21T01:34:10.331Z,15.80
2019-03-21T01:36:43.318Z,14.50
2019-03-21T01:39:15.524Z,11.50
2019-03-21T01:41:47.386Z,11.95
2019-03-21T01:44:19.447Z,16.70
2019-03-21T01:46:51.306Z,11.50
2019-03-21T01:49:23.511Z,10.20
2019-03-21T01:54:26.546Z,13.20
2019-03-21T01:56:58.424Z,10.70
2019-03-21T01:59:30.366Z,11.03
2019-03-21T02:02:02.412Z,9.77
2019-03-21T02:06:10.576Z,13.37
2019-03-21T02:08:42.513Z,12.47
2019-03-21T02:11:14.649Z,18.83
2019-03-21T02:13:46.501Z,11.60
2019-03-21T02:18:49.473Z,9.53
2019-03-21T02:23:52.611Z,13.00
2019-03-21T02:26:24.555Z,9.70
2019-03-21T02:28:56.397Z,15.73
2019-03-21T02:31:28.251Z,13.87
2019-03-21T02:34:00.358Z,15.70
2019-03-21T02:39:05.418Z,10.33
2019-03-21T02:41:37.602Z,15.83
2019-03-21T02:44:09.522Z,15.37
2019-03-21T02:49:12.514Z,13.43
2019-03-21T02:51:44.495Z,12.60
2019-03-21T02:56:47.680Z,12.83
2019-03-21T02:59:19.646Z,14.43
2019-03-21T03:01:51.532Z,18.17
2019-03-21T03:04:23.372Z,12.70
2019-03-21T03:06:55.407Z,16.97
2019-03-21T03:09:27.359Z,10.27
2019-03-21T03:11:59.312Z,13.37
2019-03-21T03:14:31.424Z,14.30
2019-03-21T03:17:03.395Z,10.93
2019-03-21T03:19:35.365Z,11.37
2019-03-21T03:22:07.399Z,13.57
2019-03-21T03:24:39.387Z,14.10
2019-03-21T03:27:11.358Z,14.43
2019-03-21T03:29:43.271Z,22.10
2019-03-21T03:32:15.301Z,13.33
2019-03-21T03:34:47.301Z,13.80
2019-03-21T03:39:51.420Z,16.43
2019-03-21T03:42:23.350Z,16.97
2019-03-21T03:44:55.332Z,10.43
2019-03-21T03:47:27.443Z,11.50
2019-03-21T03:49:59.346Z,18.30
2019-03-21T03:52:31.293Z,13.63
2019-03-21T03:55:03.305Z,12.27
2019-03-21T03:57:35.326Z,17.50
2019-03-21T04:00:11.936Z,11.73
2019-03-21T04:02:44.118Z,10.90
2019-03-21T04:05:16.476Z,15.17
2019-03-21T04:13:07.312Z,21.17
2019-03-21T04:15:51.812Z,12.93
2019-03-21T04:18:13.338Z,15.00
2019-03-21T04:20:57.389Z,11.13
2019-03-21T04:26:21.494Z,10.90
2019-03-21T04:31:24.706Z,20.83
2019-03-21T04:34:05.895Z,15.87
2019-03-21T04:36:37.789Z,12.60
2019-03-21T04:39:11.518Z,18.43
2019-03-21T04:44:17.749Z,15.03
2019-03-21T04:46:49.606Z,14.03
2019-03-21T04:49:21.518Z,18.30
2019-03-21T04:51:53.387Z,17.75
2019-03-21T04:56:56.504Z,14.13
2019-03-21T04:59:28.499Z,12.93
2019-03-21T05:04:31.639Z,11.43
2019-03-21T05:07:03.875Z,10.27
2019-03-21T05:09:36.050Z,21.40
2019-03-21T05:12:10.285Z,16.00
2019-03-21T05:17:13.571Z,12.47
2019-03-21T05:19:45.525Z,17.47
2019-03-21T05:22:17.775Z,20.30
2019-03-21T05:24:50.853Z,16.53
2019-03-21T05:27:23.474Z,16.97
2019-03-21T05:32:26.686Z,12.77
2019-03-21T05:34:58.643Z,14.43
2019-03-21T05:37:30.579Z,15.60
2019-03-21T05:40:02.600Z,19.43
2019-03-21T05:42:34.581Z,13.90
2019-03-21T05:45:15.654Z,18.67
2019-03-21T05:47:48.063Z,16.17
2019-03-21T05:50:20.380Z,13.50
2019-03-21T05:52:52.551Z,12.80
2019-03-21T05:55:26.712Z,15.90
2019-03-21T06:00:51.557Z,18.10
2019-03-21T06:03:36.393Z,23.77
2019-03-21T06:09:22.338Z,12.97
2019-03-21T06:12:05.822Z,14.93
2019-03-21T06:15:04.292Z,18.13
2019-03-21T06:17:36.264Z,15.98
2019-03-21T06:20:56.511Z,24.17
2019-03-21T06:26:28.567Z,18.50
2019-03-21T06:29:00.486Z,23.57
2019-03-21T06:34:03.833Z,22.50
2019-03-21T06:36:36.783Z,25.97
2019-03-21T06:39:10.700Z,26.07
2019-03-21T06:41:42.825Z,33.40
2019-03-21T06:44:14.817Z,24.30
2019-03-21T06:46:49.658Z,32.27
2019-03-21T06:49:21.282Z,24.90
2019-03-21T06:51:53.495Z,32.27
2019-03-21T07:15:46.598Z,29.20
2019-03-21T07:18:18.641Z,28.87
2019-03-21T07:20:50.988Z,31.07
2019-03-21T07:23:24.772Z,34.40
2019-03-21T07:25:56.936Z,28.57
2019-03-21T07:28:29.774Z,24.20
2019-03-21T07:31:01.700Z,30.40
2019-03-21T07:33:35.465Z,32.20
2019-03-21T07:38:38.917Z,21.93
2019-03-21T07:41:11.335Z,23.40
2019-03-21T07:43:43.440Z,25.80
2019-03-21T07:46:15.476Z,34.73
2019-03-21T07:51:18.667Z,31.68
2019-03-21T07:53:50.696Z,33.00
2019-03-21T07:56:24.940Z,29.55
2019-03-21T07:58:58.288Z,27.73
2019-03-21T08:01:30.321Z,31.10
2019-03-21T08:04:03.152Z,29.05
2019-03-21T08:06:37.352Z,23.57
2019-03-21T08:09:11.048Z,20.37
2019-03-21T08:11:43.047Z,30.30
2019-03-21T08:14:18.359Z,21.57
2019-03-21T08:16:50.472Z,22.30
2019-03-21T08:19:24.299Z,22.27
2019-03-21T08:21:56.305Z,27.82
2019-03-21T08:24:28.414Z,24.35
2019-03-21T08:27:00.480Z,22.70
2019-03-21T08:29:33.031Z,26.97
2019-03-21T08:32:06.553Z,29.45
2019-03-21T08:34:38.614Z,19.92
2019-03-21T08:37:12.347Z,21.37
2019-03-21T08:39:44.297Z,25.45
2019-03-21T08:42:16.385Z,27.07
2019-03-21T08:44:51.285Z,28.98
2019-03-21T08:47:23.347Z,26.10
2019-03-21T08:52:27.711Z,21.82
2019-03-21T08:54:59.819Z,24.20
2019-03-21T08:57:31.987Z,16.80
2019-03-21T09:00:09.298Z,18.05
2019-03-21T09:02:41.363Z,23.70
2019-03-21T09:05:15.033Z,16.90
2019-03-21T09:07:47.047Z,21.68
2019-03-21T09:12:53.464Z,17.52
2019-03-21T09:15:25.505Z,15.78
2019-03-21T09:17:57.666Z,12.68
2019-03-21T09:20:30.113Z,19.48
2019-03-21T09:23:02.288Z,15.30
2019-03-21T09:25:34.333Z,15.43
2019-03-21T09:28:06.325Z,20.12
2019-03-21T09:30:38.288Z,15.85
2019-03-21T09:33:11.044Z,17.35
2019-03-21T09:35:43.802Z,16.90
2019-03-21T09:38:16.527Z,15.38
2019-03-21T09:40:51.867Z,15.63
2019-03-21T09:43:24.304Z,13.62
2019-03-21T09:48:30.260Z,15.45
2019-03-21T09:51:06.510Z,15.05
2019-03-21T09:53:38.690Z,12.33
2019-03-21T09:56:11.298Z,13.00
2019-03-21T09:58:44.727Z,12.60
2019-03-21T10:01:18.675Z,12.53
2019-03-21T10:03:51.418Z,9.58
2019-03-21T10:06:26.078Z,12.20
2019-03-21T10:08:58.292Z,17.42
2019-03-21T10:11:30.394Z,9.23
2019-03-21T10:14:02.343Z,13.15
2019-03-21T10:16:36.649Z,9.98
2019-03-21T10:19:08.748Z,9.78
2019-03-21T10:21:43.534Z,7.85
2019-03-21T10:24:14.533Z,8.08
2019-03-21T10:26:47.067Z,9.60
2019-03-21T10:29:19.323Z,10.55
2019-03-21T10:31:51.381Z,8.88
2019-03-21T10:34:23.329Z,11.63
2019-03-21T10:36:55.383Z,10.13
2019-03-21T10:39:29.492Z,10.32
2019-03-21T10:42:01.547Z,9.98
2019-03-21T10:44:33.836Z,6.42
2019-03-21T10:47:05.981Z,10.75
2019-03-21T10:49:38.298Z,7.05
2019-03-21T10:52:12.039Z,13.88
2019-03-21T10:54:45.297Z,7.75
2019-03-21T10:57:17.448Z,7.58
2019-03-21T11:02:21.289Z,6.40
2019-03-21T11:04:53.414Z,8.10
2019-03-21T11:09:55.307Z,8.35
2019-03-21T11:12:30.662Z,9.75
2019-03-21T11:15:03.878Z,11.80
2019-03-21T11:17:36.011Z,8.65
2019-03-21T11:20:09.285Z,8.43
2019-03-21T11:22:41.538Z,5.37
2019-03-21T11:25:13.756Z,6.28
2019-03-21T11:27:45.702Z,6.80
2019-03-21T11:30:35.295Z,8.70
2019-03-21T11:33:07.582Z,6.00
2019-03-21T11:35:40.289Z,7.90
2019-03-21T11:38:12.333Z,6.97
2019-03-21T11:40:44.444Z,9.70
2019-03-21T11:45:48.368Z,8.10
2019-03-21T11:50:54.790Z,7.85
2019-03-21T11:53:26.718Z,5.47
2019-03-21T11:55:59.296Z,5.90
2019-03-21T11:58:31.366Z,9.73
2019-03-21T12:01:04.890Z,4.78
2019-03-21T12:03:37.032Z,7.20
2019-03-21T12:06:09.308Z,10.58
2019-03-21T12:08:41.462Z,6.20
2019-03-21T12:13:44.572Z,9.08
2019-03-21T12:16:16.438Z,7.03
2019-03-21T12:18:48.459Z,5.22
2019-03-21T12:23:51.702Z,6.03
2019-03-21T12:26:23.677Z,7.17
2019-03-21T12:28:55.714Z,6.47
2019-03-21T12:31:27.786Z,5.50
2019-03-21T12:34:00.319Z,7.67
2019-03-21T12:36:34.597Z,8.80
2019-03-21T12:39:09.463Z,6.30
2019-03-21T12:44:14.374Z,5.30
2019-03-21T12:49:17.676Z,5.33
2019-03-21T12:51:51.364Z,3.77
2019-03-21T12:56:54.786Z,3.92
2019-03-21T12:59:26.695Z,3.50
2019-03-21T13:02:00.298Z,4.92
2019-03-21T13:04:32.322Z,5.47
2019-03-21T13:07:05.941Z,3.90
2019-03-21T13:09:37.983Z,7.37
2019-03-21T13:12:10.292Z,5.65
2019-03-21T13:17:13.539Z,3.62
2019-03-21T13:19:45.859Z,3.17
2019-03-21T13:22:17.911Z,4.42
2019-03-21T13:25:06.731Z,4.10
2019-03-21T13:27:38.697Z,4.17
2019-03-21T13:30:13.583Z,7.17
2019-03-21T13:32:47.094Z,8.83
2019-03-21T13:39:03.667Z,7.40
2019-03-21T13:41:38.356Z,4.80
2019-03-21T13:44:10.290Z,5.50
2019-03-21T13:49:27.746Z,7.22
2019-03-21T13:51:59.653Z,7.28
2019-03-21T13:54:31.574Z,5.83
2019-03-21T13:57:03.584Z,5.05
2019-03-21T14:02:29.361Z,3.92
2019-03-21T14:05:10.354Z,4.22
2019-03-21T14:13:21.308Z,4.15
2019-03-21T14:15:53.362Z,4.45
2019-03-21T14:22:07.303Z,3.77
2019-03-21T14:28:05.601Z,7.45
2019-03-21T14:30:37.951Z,3.52
2019-03-21T14:33:09.880Z,4.87
2019-03-21T14:35:43.610Z,4.15
2019-03-21T14:38:25.890Z,3.67
2019-03-21T14:43:21.304Z,3.47
2019-03-21T14:45:53.537Z,5.22
2019-03-21T14:48:29.911Z,17.40
2019-03-21T15:02:49.774Z,4.03
2019-03-21T15:05:21.897Z,6.85
2019-03-21T15:07:53.796Z,4.67
2019-03-21T15:10:26.016Z,5.62
2019-03-21T15:13:00.609Z,4.30
2019-03-21T15:15:32.583Z,3.27
2019-03-21T15:18:04.654Z,3.87
2019-03-21T15:20:37.078Z,5.30
2019-03-21T15:23:09.290Z,2.98
2019-03-21T15:25:41.371Z,3.92
2019-03-21T15:28:13.452Z,5.42
2019-03-21T15:30:46.327Z,3.60
2019-03-21T15:33:18.292Z,4.40
2019-03-21T15:35:51.694Z,4.12
2019-03-21T15:38:23.461Z,3.35
2019-03-21T15:43:27.287Z,5.15
2019-03-21T15:45:59.318Z,4.15
2019-03-21T15:48:31.348Z,5.22
2019-03-21T15:51:04.725Z,2.75
2019-03-21T15:53:37.450Z,5.80
2019-03-21T15:56:09.663Z,6.53
2019-03-21T15:58:41.881Z,3.95
2019-03-21T16:01:13.843Z,4.95
2019-03-21T16:03:45.803Z,8.63
2019-03-21T16:06:17.712Z,6.15
2019-03-21T16:08:49.814Z,6.10
2019-03-21T16:11:22.018Z,7.55
2019-03-21T16:13:54.264Z,11.03
2019-03-21T16:16:26.302Z,11.28
2019-03-21T16:18:58.322Z,5.08
2019-03-21T16:21:30.736Z,5.92
2019-03-21T16:24:05.396Z,5.08
2019-03-21T16:26:36.949Z,2.17
2019-03-21T16:29:10.348Z,4.10
2019-03-21T16:31:42.591Z,3.92
2019-03-21T16:34:14.806Z,4.00
2019-03-21T16:36:48.291Z,5.92
2019-03-21T16:39:20.470Z,4.10
2019-03-21T16:44:24.283Z,4.10
2019-03-21T16:46:56.356Z,4.33
2019-03-21T16:52:00.620Z,3.92
2019-03-21T16:54:32.791Z,4.40
2019-03-21T16:59:41.167Z,8.88
2019-03-21T17:02:13.298Z,6.30
2019-03-21T17:04:45.489Z,6.15
2019-03-21T17:09:49.313Z,7.25
2019-03-21T17:12:23.020Z,7.83
2019-03-21T17:14:55.189Z,8.90
2019-03-21T17:17:30.437Z,7.12
2019-03-21T17:20:03.834Z,6.70
2019-03-21T17:22:36.282Z,5.45
2019-03-21T17:25:09.596Z,6.65
2019-03-21T17:27:41.669Z,8.45
2019-03-21T17:30:16.507Z,5.03
2019-03-21T17:32:48.640Z,5.95
2019-03-21T17:35:22.364Z,7.85
2019-03-21T17:40:27.361Z,7.92
2019-03-21T17:42:59.247Z,5.50
2019-03-21T17:45:32.837Z,6.17
2019-03-21T17:48:05.981Z,5.65
2019-03-21T17:50:38.403Z,8.45
2019-03-21T17:53:10.661Z,7.20
2019-03-21T17:55:42.739Z,7.22
2019-03-21T17:58:14.743Z,6.70
2019-03-21T18:00:47.030Z,9.25
2019-03-21T18:03:19.297Z,9.90
2019-03-21T18:05:52.566Z,8.03
2019-03-21T18:08:24.741Z,6.67
2019-03-21T18:10:57.414Z,10.03
2019-03-21T18:13:29.699Z,14.00
2019-03-21T18:16:01.900Z,8.95
2019-03-21T18:18:33.971Z,8.83
2019-03-21T18:21:06.193Z,6.83
2019-03-21T18:23:38.440Z,8.33
2019-03-21T18:28:42.330Z,7.45
2019-03-21T18:31:14.362Z,9.40
2019-03-21T18:33:46.426Z,7.58
2019-03-21T18:38:58.744Z,10.38
2019-03-21T18:41:23.562Z,11.75
2019-03-21T18:43:55.727Z,9.15
2019-03-21T18:46:27.656Z,15.83
2019-03-21T18:48:59.753Z,12.85
2019-03-21T18:51:31.701Z,11.12
2019-03-21T18:54:04.057Z,9.73
2019-03-21T18:56:36.299Z,9.58
2019-03-21T18:59:08.423Z,8.48
2019-03-21T19:04:12.227Z,12.40
2019-03-21T19:06:44.323Z,10.72
2019-03-21T19:09:16.259Z,8.18
2019-03-21T19:11:48.559Z,8.70
2019-03-21T19:14:20.678Z,14.23
2019-03-21T19:16:52.982Z,9.33
2019-03-21T19:19:25.302Z,12.60
2019-03-21T19:21:57.778Z,9.33
2019-03-21T19:24:31.585Z,9.75
2019-03-21T19:27:03.700Z,9.63
2019-03-21T19:29:36.312Z,6.78
2019-03-21T19:32:08.394Z,9.20
2019-03-21T19:37:12.069Z,9.70
2019-03-21T19:39:45.802Z,9.33
2019-03-21T19:42:18.044Z,13.58
2019-03-21T19:44:54.224Z,11.70
2019-03-21T19:47:30.499Z,13.85
2019-03-21T19:50:03.874Z,10.80
2019-03-21T19:52:40.675Z,12.85
2019-03-21T19:55:30.162Z,10.58
2019-03-21T19:57:55.265Z,13.48
2019-03-21T20:00:29.299Z,11.75
2019-03-21T20:03:05.867Z,9.50
2019-03-21T20:05:40.530Z,10.32
2019-03-21T20:08:12.667Z,13.55
2019-03-21T20:10:44.627Z,8.63
2019-03-21T20:13:16.801Z,10.58
2019-03-21T20:15:49.057Z,9.88
2019-03-21T20:18:24.548Z,9.43
2019-03-21T20:20:58.542Z,13.03
2019-03-21T20:23:30.697Z,12.10
2019-03-21T20:26:04.964Z,7.95
2019-03-21T20:28:39.560Z,17.00
2019-03-21T20:31:11.680Z,13.90
2019-03-21T20:33:45.383Z,14.95
2019-03-21T20:38:49.074Z,10.60
2019-03-21T20:41:21.733Z,11.75
2019-03-21T20:43:54.124Z,11.50
2019-03-21T20:46:26.318Z,16.20
2019-03-21T20:49:01.469Z,10.38
2019-03-21T20:51:36.302Z,13.15
2019-03-21T20:54:08.406Z,8.05
2019-03-21T20:59:17.318Z,20.25
2019-03-21T21:01:49.273Z,14.63
2019-03-21T21:04:22.505Z,10.40
2019-03-21T21:06:54.824Z,14.83
2019-03-21T21:09:27.287Z,12.43
2019-03-21T21:11:59.407Z,10.82
2019-03-21T21:14:31.370Z,11.08
2019-03-21T21:17:03.373Z,9.60
2019-03-21T21:19:35.380Z,13.85
2019-03-21T21:22:07.433Z,14.50
2019-03-21T21:27:10.986Z,12.88
2019-03-21T21:29:44.818Z,9.13
2019-03-21T21:32:30.385Z,11.60
2019-03-21T21:37:45.817Z,13.88
2019-03-21T21:40:19.041Z,11.00
2019-03-21T21:42:52.451Z,8.20
2019-03-21T21:47:55.615Z,14.07
2019-03-21T21:50:27.723Z,11.33
2019-03-21T21:52:59.632Z,9.60
2019-03-21T21:55:31.706Z,8.88
2019-03-21T21:58:04.106Z,18.07
2019-03-21T22:00:36.305Z,15.68
2019-03-21T22:03:08.302Z,9.73
2019-03-21T22:05:40.490Z,11.68
2019-03-21T22:10:43.894Z,18.20
2019-03-21T22:13:15.844Z,18.95
2019-03-21T22:15:48.562Z,13.15
2019-03-21T22:18:20.659Z,9.53
2019-03-21T22:20:52.822Z,21.05
2019-03-21T22:23:24.792Z,10.85
2019-03-21T22:25:56.833Z,11.85
2019-03-21T22:28:28.712Z,16.15
2019-03-21T22:31:00.732Z,17.70
2019-03-21T22:33:34.309Z,9.53
2019-03-21T22:36:06.673Z,9.63
2019-03-21T22:38:46.290Z,14.00
2019-03-21T22:41:27.345Z,10.72
2019-03-21T22:44:03.281Z,12.43
2019-03-21T22:46:54.258Z,14.15
2019-03-21T22:49:26.421Z,12.33
2019-03-21T22:51:58.382Z,17.05
2019-03-21T22:54:30.809Z,18.42
2019-03-21T22:57:04.291Z,20.85
2019-03-21T22:59:36.526Z,17.02
2019-03-21T23:02:10.406Z,14.23
2019-03-21T23:07:16.547Z,16.57
2019-03-21T23:09:48.392Z,15.53
2019-03-21T23:12:20.430Z,21.20
2019-03-21T23:14:52.445Z,21.37
2019-03-21T23:20:06.549Z,11.68
2019-03-21T23:22:41.035Z,16.03
2019-03-21T23:25:17.329Z,14.87
2019-03-21T23:27:49.306Z,13.10
2019-03-21T23:32:52.697Z,20.20
2019-03-21T23:35:25.034Z,13.48
2019-03-21T23:37:57.297Z,19.30
2019-03-21T23:40:29.402Z,12.35
2019-03-21T23:43:02.313Z,15.28
2019-03-21T23:45:34.502Z,12.75
2019-03-21T23:48:08.325Z,14.13
2019-03-21T23:50:40.377Z,15.35
2019-03-21T23:53:12.293Z,16.10
2019-03-21T23:55:44.363Z,16.25
